Worms, Nebraska
Current Conditions -  °F | °C
As of 7:53 AM on Tuesday 21 Oct 2014 (Local Time) from KGRI Reporting Station
Clear Clear  
Wind Chill: 42°   Ceiling: Unl
Heat Index: 42°   Visibility: 10mi
Dew Point: 38°   Wind: 3mph
Humidity: 85%   Direction: 160°SSE
Pressure: 30.08"   Gusts: NA
Location:  41.091°N, 98.3628°W
Report Text: KGRI 211253Z 16003KT 10SM CLR 06/03 A3008 RMK AO2 SLP189 T00560033
Loading
Personal Weather Stations






























Interactive Weather Map
Tropical Storm Tracking
New forecast layout! Learn more

10-Day Weather Forecast

Advertisements
Track Severe Weather on mobile